createdAt,value
2022-12-13T00:00:02.163Z,70.26
2022-12-13T00:02:30.841Z,71.12
2022-12-13T00:04:57.220Z,71.30
2022-12-13T00:07:23.571Z,72.16
2022-12-13T00:09:49.937Z,72.97
2022-12-13T00:12:17.345Z,72.63
2022-12-13T00:14:43.732Z,72.67
2022-12-13T00:17:10.108Z,72.39
2022-12-13T00:19:37.502Z,72.56
2022-12-13T00:22:03.886Z,71.79
2022-12-13T00:24:30.245Z,71.97
2022-12-13T00:26:56.587Z,71.48
2022-12-13T00:29:22.963Z,72.24
2022-12-13T00:31:59.297Z,72.86
2022-12-13T00:34:26.984Z,72.57
2022-12-13T00:36:53.371Z,72.60
2022-12-13T00:39:19.765Z,72.78
2022-12-13T00:41:46.153Z,72.93
2022-12-13T00:44:12.532Z,73.19
2022-12-13T00:46:39.094Z,73.32
2022-12-13T00:49:05.440Z,73.15
2022-12-13T00:51:32.577Z,72.83
2022-12-13T00:53:58.959Z,72.57
2022-12-13T00:56:26.366Z,72.52
2022-12-13T00:58:53.752Z,72.06
2022-12-13T01:01:20.171Z,71.44
2022-12-13T01:03:46.636Z,72.16
2022-12-13T01:06:15.320Z,72.12
2022-12-13T01:08:42.732Z,72.58
2022-12-13T01:11:09.117Z,73.48
2022-12-13T01:13:35.514Z,73.09
2022-12-13T01:16:01.901Z,73.22
2022-12-13T01:18:29.301Z,73.30
2022-12-13T01:20:55.642Z,72.80
2022-12-13T01:23:21.976Z,72.55
2022-12-13T01:25:48.320Z,72.42
2022-12-13T01:28:14.662Z,72.20
2022-12-13T01:30:41.022Z,71.98
2022-12-13T01:33:14.246Z,72.10
2022-12-13T01:35:41.174Z,71.62
2022-12-13T01:38:08.231Z,70.97
2022-12-13T01:40:42.250Z,71.55
2022-12-13T01:43:14.474Z,71.96
2022-12-13T01:45:41.305Z,71.82
2022-12-13T01:48:07.687Z,71.86
2022-12-13T01:50:34.074Z,71.43
2022-12-13T01:53:00.501Z,71.34
2022-12-13T01:55:27.003Z,71.67
2022-12-13T01:57:53.400Z,70.80
2022-12-13T02:00:19.784Z,70.57
2022-12-13T02:02:46.126Z,71.09
2022-12-13T02:05:12.679Z,70.42
2022-12-13T02:07:39.182Z,70.75
2022-12-13T02:10:05.527Z,71.85
2022-12-13T02:12:31.899Z,72.10
2022-12-13T02:15:00.881Z,71.76
2022-12-13T02:17:28.460Z,71.22
2022-12-13T02:19:55.843Z,71.30
2022-12-13T02:22:22.254Z,71.23
2022-12-13T02:24:48.643Z,71.27
2022-12-13T02:27:15.501Z,71.37
2022-12-13T02:29:41.938Z,71.62
2022-12-13T02:32:08.328Z,71.96
2022-12-13T02:34:35.799Z,71.65
2022-12-13T02:37:02.286Z,71.53
2022-12-13T02:39:30.887Z,71.48
2022-12-13T02:41:57.572Z,71.13
2022-12-13T02:44:23.937Z,71.17
2022-12-13T02:46:51.422Z,71.36
2022-12-13T02:49:17.864Z,71.07
2022-12-13T02:51:44.645Z,70.93
2022-12-13T02:54:11.118Z,70.83
2022-12-13T02:56:38.537Z,70.23
2022-12-13T02:59:04.883Z,70.75
2022-12-13T03:01:31.466Z,70.78
2022-12-13T03:04:06.967Z,71.67
2022-12-13T03:06:34.632Z,70.95
2022-12-13T03:09:01.374Z,71.68
2022-12-13T03:11:27.822Z,71.14
2022-12-13T03:13:54.305Z,71.44
2022-12-13T03:16:22.567Z,71.35
2022-12-13T03:18:50.280Z,71.81
2022-12-13T03:21:17.614Z,71.30
2022-12-13T03:23:44.325Z,71.37
2022-12-13T03:26:13.042Z,71.99
2022-12-13T03:28:39.606Z,71.90
2022-12-13T03:31:06.177Z,72.33
2022-12-13T03:33:32.611Z,72.51
2022-12-13T03:35:58.995Z,72.21
2022-12-13T03:38:27.921Z,72.11
2022-12-13T03:40:54.712Z,71.64
2022-12-13T03:43:22.324Z,71.80
2022-12-13T03:45:50.223Z,72.17
2022-12-13T03:48:22.745Z,72.27
2022-12-13T03:50:49.723Z,71.49
2022-12-13T03:53:22.885Z,71.98
2022-12-13T03:55:58.734Z,72.20
2022-12-13T03:58:27.597Z,72.09
2022-12-13T04:01:03.812Z,72.50
2022-12-13T04:03:34.686Z,71.98
2022-12-13T04:06:01.044Z,71.94
2022-12-13T04:08:27.928Z,71.87
2022-12-13T04:10:54.410Z,72.62
2022-12-13T04:13:23.040Z,72.62
2022-12-13T04:15:49.495Z,72.50
2022-12-13T04:18:16.314Z,72.64
2022-12-13T04:20:42.739Z,72.47
2022-12-13T04:23:10.697Z,72.11
2022-12-13T04:25:37.124Z,72.06
2022-12-13T04:28:03.532Z,72.07
2022-12-13T04:30:29.911Z,71.26
2022-12-13T04:32:56.537Z,71.40
2022-12-13T04:35:22.912Z,71.71
2022-12-13T04:37:49.411Z,71.60
2022-12-13T04:40:21.793Z,71.66
2022-12-13T04:42:53.995Z,71.89
2022-12-13T04:45:20.975Z,72.57
2022-12-13T04:47:47.477Z,73.49
2022-12-13T04:50:14.511Z,73.51
2022-12-13T04:52:40.959Z,74.24
2022-12-13T04:55:07.524Z,73.56
2022-12-13T04:57:33.874Z,73.89
2022-12-13T05:00:01.455Z,74.06
2022-12-13T05:02:28.155Z,74.08
2022-12-13T05:04:54.673Z,74.21
2022-12-13T05:07:21.097Z,73.73
2022-12-13T05:09:47.567Z,73.44
2022-12-13T05:12:23.263Z,73.77
2022-12-13T05:14:50.080Z,73.91
2022-12-13T05:17:16.528Z,73.45
2022-12-13T05:19:42.978Z,73.29
2022-12-13T05:22:09.361Z,72.99
2022-12-13T05:24:36.086Z,72.92
2022-12-13T05:27:02.519Z,72.80
2022-12-13T05:29:48.860Z,72.52
2022-12-13T05:32:15.318Z,73.03
2022-12-13T05:34:42.247Z,72.88
2022-12-13T05:37:08.635Z,72.55
2022-12-13T05:39:35.124Z,72.68
2022-12-13T05:42:02.741Z,72.90
2022-12-13T05:44:29.484Z,72.57
2022-12-13T05:46:55.831Z,72.57
2022-12-13T05:49:22.213Z,72.54
2022-12-13T05:51:48.934Z,73.53
2022-12-13T05:54:17.424Z,73.27
2022-12-13T05:56:43.764Z,73.42
2022-12-13T05:59:10.234Z,73.33
2022-12-13T06:01:36.558Z,73.19
2022-12-13T06:04:10.300Z,72.99
2022-12-13T06:06:36.672Z,73.00
2022-12-13T06:09:03.052Z,73.14
2022-12-13T06:11:31.963Z,72.86
2022-12-13T06:14:00.959Z,73.31
2022-12-13T06:16:27.934Z,74.09
2022-12-13T06:19:03.364Z,74.19
2022-12-13T06:21:41.300Z,74.39
2022-12-13T06:24:11.989Z,74.33
2022-12-13T06:26:39.666Z,74.06
2022-12-13T06:29:06.064Z,74.10
2022-12-13T06:31:32.410Z,74.42
2022-12-13T06:33:59.552Z,74.21
2022-12-13T06:36:41.404Z,74.19
2022-12-13T06:39:07.752Z,74.07
2022-12-13T06:41:34.228Z,73.69
2022-12-13T06:44:00.933Z,73.40
2022-12-13T06:46:27.434Z,73.99
2022-12-13T06:48:54.107Z,74.32
2022-12-13T06:51:22.636Z,74.43
2022-12-13T06:53:49.645Z,74.43
2022-12-13T06:56:15.988Z,74.30
2022-12-13T06:58:42.350Z,74.08
2022-12-13T07:01:14.838Z,74.21
2022-12-13T07:03:50.112Z,73.73
2022-12-13T07:06:16.454Z,73.61
2022-12-13T07:08:43.024Z,73.41
2022-12-13T07:11:09.462Z,73.80
2022-12-13T07:13:35.878Z,73.14
2022-12-13T07:16:02.324Z,73.39
2022-12-13T07:18:28.789Z,72.76
2022-12-13T07:20:55.244Z,73.04
2022-12-13T07:23:24.526Z,72.99
2022-12-13T07:25:51.231Z,73.85
2022-12-13T07:31:08.824Z,73.74
2022-12-13T07:36:25.457Z,72.64
2022-12-13T07:41:42.596Z,74.23
2022-12-13T07:44:12.682Z,74.48
2022-12-13T07:46:39.112Z,74.71
2022-12-13T07:49:09.767Z,73.91
2022-12-13T07:51:36.207Z,72.89
2022-12-13T07:57:04.090Z,72.93
2022-12-13T07:59:44.135Z,72.98
2022-12-13T08:02:10.574Z,72.64
2022-12-13T08:13:04.814Z,73.87
2022-12-13T08:15:31.947Z,73.40
2022-12-13T08:20:39.728Z,72.43
2022-12-13T08:23:06.477Z,72.07
2022-12-13T08:28:33.305Z,71.85
2022-12-13T08:31:02.427Z,71.70
2022-12-13T08:39:03.480Z,72.49
2022-12-13T08:41:33.275Z,72.16
2022-12-13T08:46:42.688Z,71.83
2022-12-13T08:49:09.140Z,71.89
2022-12-13T08:55:09.035Z,71.14
2022-12-13T08:57:10.633Z,71.43
2022-12-13T09:02:27.516Z,71.30
2022-12-13T09:05:03.717Z,71.41
2022-12-13T09:10:26.771Z,71.72
2022-12-13T09:13:11.824Z,71.62
2022-12-13T09:18:24.112Z,70.82
2022-12-13T09:23:53.318Z,68.96
2022-12-13T09:29:18.716Z,70.62
2022-12-13T09:31:52.614Z,69.97
2022-12-13T09:34:27.239Z,70.09
2022-12-13T09:36:55.776Z,70.35
2022-12-13T09:47:49.511Z,69.41
2022-12-13T09:50:19.068Z,68.90
2022-12-13T09:52:53.803Z,67.98
2022-12-13T09:55:40.091Z,67.72
2022-12-13T10:03:34.147Z,69.45
2022-12-13T10:06:04.939Z,69.65
2022-12-13T10:14:09.695Z,69.68
2022-12-13T10:16:38.164Z,70.06
2022-12-13T10:19:05.937Z,70.25
2022-12-13T10:21:38.964Z,70.42
2022-12-13T10:24:28.606Z,71.13
2022-12-13T10:27:02.968Z,72.66
2022-12-13T10:34:58.536Z,72.76
2022-12-13T10:37:25.115Z,73.48
2022-12-13T10:40:05.166Z,72.43
2022-12-13T10:50:56.706Z,72.23
2022-12-13T10:53:23.456Z,73.50
2022-12-13T10:55:50.087Z,72.17
2022-12-13T10:58:16.556Z,71.12
2022-12-13T11:00:42.952Z,71.26
2022-12-13T11:03:09.327Z,72.50
2022-12-13T11:05:35.793Z,72.30
2022-12-13T11:08:02.180Z,72.46
2022-12-13T11:10:31.546Z,72.36
2022-12-13T11:12:58.090Z,72.17
2022-12-13T11:15:25.569Z,72.02
2022-12-13T11:17:53.027Z,72.15
2022-12-13T11:20:20.220Z,72.81
2022-12-13T11:22:46.580Z,72.89
2022-12-13T11:25:14.400Z,72.34
2022-12-13T11:27:40.803Z,72.48
2022-12-13T11:30:07.191Z,72.90
2022-12-13T11:32:33.553Z,73.00
2022-12-13T11:35:00.407Z,72.07
2022-12-13T11:37:31.684Z,72.69
2022-12-13T11:40:01.485Z,72.62
2022-12-13T11:42:39.635Z,72.92
2022-12-13T11:45:06.121Z,72.85
2022-12-13T11:47:32.674Z,73.23
2022-12-13T11:50:01.340Z,73.02
2022-12-13T11:52:28.382Z,72.69
2022-12-13T11:54:54.814Z,73.45
2022-12-13T11:57:21.267Z,72.96
2022-12-13T11:59:47.893Z,72.68
2022-12-13T12:02:16.994Z,73.36
2022-12-13T12:04:43.698Z,74.32
2022-12-13T12:07:31.283Z,73.40
2022-12-13T12:09:57.427Z,73.27
2022-12-13T12:12:23.786Z,74.00
2022-12-13T12:14:50.482Z,71.47
2022-12-13T12:17:18.878Z,71.50
2022-12-13T12:19:45.507Z,72.26
2022-12-13T12:22:14.605Z,71.87
2022-12-13T12:24:41.686Z,72.52
2022-12-13T12:27:08.039Z,72.70
2022-12-13T12:29:34.605Z,72.21
2022-12-13T12:32:04.006Z,73.10
2022-12-13T12:34:30.576Z,73.24
2022-12-13T12:36:56.982Z,73.61
2022-12-13T12:39:26.247Z,73.37
2022-12-13T12:41:53.371Z,72.52
2022-12-13T12:44:22.220Z,72.68
2022-12-13T12:47:17.805Z,72.64
2022-12-13T12:49:34.979Z,72.05
2022-12-13T12:52:01.516Z,72.24
2022-12-13T12:54:32.167Z,72.46
2022-12-13T12:56:59.160Z,72.44
2022-12-13T12:59:25.503Z,72.31
2022-12-13T13:01:51.932Z,71.99
2022-12-13T13:04:22.779Z,72.12
2022-12-13T13:06:50.029Z,72.71
2022-12-13T13:09:24.598Z,73.29
2022-12-13T13:11:57.406Z,73.65
2022-12-13T13:14:24.288Z,74.36
2022-12-13T13:16:50.873Z,74.27
2022-12-13T13:19:25.458Z,74.49
2022-12-13T13:21:52.411Z,74.01
2022-12-13T13:24:18.820Z,74.21
2022-12-13T13:26:45.193Z,74.29
2022-12-13T13:29:11.808Z,74.30
2022-12-13T13:31:39.109Z,74.95
2022-12-13T13:34:05.782Z,74.76
2022-12-13T13:36:32.179Z,74.19
2022-12-13T13:39:00.997Z,74.92
2022-12-13T13:41:28.168Z,75.28
2022-12-13T13:43:55.585Z,75.52
2022-12-13T13:46:22.263Z,76.23
2022-12-13T13:48:48.899Z,76.61
2022-12-13T13:51:15.486Z,75.30
2022-12-13T13:53:44.187Z,74.79
2022-12-13T13:56:13.094Z,75.07
2022-12-13T13:58:39.455Z,74.75
2022-12-13T14:01:07.863Z,75.22
2022-12-13T14:03:35.307Z,75.77
2022-12-13T14:06:01.995Z,75.65
2022-12-13T14:08:28.502Z,75.50
2022-12-13T14:10:56.309Z,75.92
2022-12-13T14:13:23.411Z,75.24
2022-12-13T14:15:50.236Z,75.12
2022-12-13T14:18:21.377Z,75.68
2022-12-13T14:20:48.667Z,75.97
2022-12-13T14:23:15.057Z,76.56
2022-12-13T14:25:52.330Z,75.97
2022-12-13T14:28:21.187Z,75.42
2022-12-13T14:30:47.676Z,75.16
2022-12-13T14:33:26.252Z,76.08
2022-12-13T14:35:55.276Z,75.76
2022-12-13T14:38:21.819Z,75.67
2022-12-13T14:40:49.354Z,75.85
2022-12-13T14:43:23.813Z,76.38
2022-12-13T14:45:50.662Z,76.64
2022-12-13T14:48:27.798Z,76.15
2022-12-13T14:50:55.533Z,76.07
2022-12-13T14:53:22.987Z,76.25
2022-12-13T14:55:49.769Z,76.41
2022-12-13T14:58:18.482Z,77.05
2022-12-13T15:00:56.642Z,76.49
2022-12-13T15:03:25.920Z,76.86
2022-12-13T15:05:53.272Z,77.70
2022-12-13T15:08:19.858Z,78.51
2022-12-13T15:10:48.015Z,78.64
2022-12-13T15:13:15.118Z,79.08
2022-12-13T15:15:41.479Z,79.41
2022-12-13T15:18:10.254Z,79.38
2022-12-13T15:20:40.328Z,78.61
2022-12-13T15:23:06.850Z,77.91
2022-12-13T15:25:33.414Z,77.91
2022-12-13T15:28:01.799Z,78.07
2022-12-13T15:30:31.058Z,78.29
2022-12-13T15:32:58.694Z,78.03
2022-12-13T15:35:26.357Z,78.24
2022-12-13T15:37:53.077Z,77.85
2022-12-13T15:40:19.464Z,77.98
2022-12-13T15:42:48.379Z,78.06
2022-12-13T15:45:15.889Z,78.00
2022-12-13T15:47:42.273Z,78.29
2022-12-13T15:50:11.268Z,78.06
2022-12-13T15:52:37.620Z,77.89
2022-12-13T15:55:06.104Z,77.81
2022-12-13T15:57:39.759Z,77.86
2022-12-13T16:00:06.157Z,77.69
2022-12-13T16:02:33.754Z,78.11
2022-12-13T16:05:00.831Z,78.05
2022-12-13T16:07:27.308Z,77.82
2022-12-13T16:09:59.236Z,77.68
2022-12-13T16:12:25.604Z,77.91
2022-12-13T16:14:52.600Z,77.95
2022-12-13T16:17:27.047Z,77.84
2022-12-13T16:19:53.597Z,78.03
2022-12-13T16:22:20.627Z,77.74
2022-12-13T16:24:47.016Z,78.00
2022-12-13T16:27:14.371Z,77.97
2022-12-13T16:29:40.751Z,77.90
2022-12-13T16:32:08.661Z,78.27
2022-12-13T16:34:35.766Z,78.60
2022-12-13T16:37:02.362Z,78.83
2022-12-13T16:39:35.075Z,78.77
2022-12-13T16:42:03.760Z,79.18
2022-12-13T16:44:30.192Z,79.17
2022-12-13T16:47:11.778Z,79.38
2022-12-13T16:49:44.221Z,79.17
2022-12-13T16:52:10.609Z,79.43
2022-12-13T16:54:37.246Z,79.37
2022-12-13T16:57:03.635Z,79.75
2022-12-13T16:59:31.043Z,79.37
2022-12-13T17:01:57.598Z,79.71
2022-12-13T17:04:24.064Z,79.90
2022-12-13T17:06:50.640Z,80.01
2022-12-13T17:09:18.524Z,80.12
2022-12-13T17:11:45.040Z,79.87
2022-12-13T17:14:11.438Z,79.65
2022-12-13T17:16:38.202Z,79.46
2022-12-13T17:19:07.757Z,78.78
2022-12-13T17:21:34.202Z,78.60
2022-12-13T17:24:00.774Z,78.19
2022-12-13T17:26:27.478Z,78.48
2022-12-13T17:28:55.834Z,78.42
2022-12-13T17:31:22.550Z,78.39
2022-12-13T17:33:49.980Z,78.31
2022-12-13T17:36:16.385Z,78.13
2022-12-13T17:38:42.747Z,78.27
2022-12-13T17:41:11.447Z,78.06
2022-12-13T17:43:39.321Z,77.64
2022-12-13T17:46:06.231Z,77.36
2022-12-13T17:48:40.181Z,77.44
2022-12-13T17:51:07.813Z,77.20
2022-12-13T17:53:34.693Z,76.87
2022-12-13T17:56:01.082Z,76.17
2022-12-13T17:58:28.702Z,75.78
2022-12-13T18:00:55.357Z,76.10
2022-12-13T18:03:24.769Z,76.13
2022-12-13T18:05:51.637Z,76.40
2022-12-13T18:08:18.854Z,76.04
2022-12-13T18:10:48.856Z,76.23
2022-12-13T18:13:20.891Z,76.69
2022-12-13T18:15:47.520Z,76.14
2022-12-13T18:18:14.568Z,76.42
2022-12-13T18:20:41.093Z,76.28
2022-12-13T18:23:07.519Z,76.00
2022-12-13T18:25:34.221Z,75.67
2022-12-13T18:28:01.422Z,75.65
2022-12-13T18:30:27.862Z,75.89
2022-12-13T18:32:54.216Z,75.77
2022-12-13T18:35:29.019Z,76.04
2022-12-13T18:37:55.411Z,76.64
2022-12-13T18:40:21.750Z,76.67
2022-12-13T18:42:48.236Z,76.64
2022-12-13T18:45:14.615Z,76.71
2022-12-13T18:47:40.959Z,76.67
2022-12-13T18:50:08.314Z,76.58
2022-12-13T18:52:34.660Z,76.45
2022-12-13T18:55:01.101Z,76.49
2022-12-13T18:57:27.616Z,76.59
2022-12-13T18:59:54.911Z,76.43
2022-12-13T19:02:21.488Z,76.40
2022-12-13T19:04:55.299Z,76.50
2022-12-13T19:07:22.146Z,76.42
2022-12-13T19:09:54.989Z,76.44
2022-12-13T19:12:21.868Z,76.52
2022-12-13T19:14:54.460Z,76.54
2022-12-13T19:17:21.507Z,76.94
2022-12-13T19:19:48.121Z,76.96
2022-12-13T19:22:14.848Z,76.89
2022-12-13T19:24:42.240Z,76.99
2022-12-13T19:27:08.734Z,76.77
2022-12-13T19:29:35.139Z,76.91
2022-12-13T19:32:01.663Z,76.90
2022-12-13T19:34:28.057Z,76.90
2022-12-13T19:36:54.644Z,76.69
2022-12-13T19:39:23.538Z,76.66
2022-12-13T19:41:50.108Z,76.78
2022-12-13T19:44:16.457Z,77.15
2022-12-13T19:46:43.204Z,77.04
2022-12-13T19:49:09.971Z,77.08
2022-12-13T19:51:39.882Z,77.17
2022-12-13T19:54:06.531Z,77.08
2022-12-13T19:56:33.587Z,77.02
2022-12-13T19:58:59.957Z,77.04
2022-12-13T20:01:26.701Z,77.03
2022-12-13T20:03:56.371Z,76.82
2022-12-13T20:06:22.800Z,76.95
2022-12-13T20:08:50.468Z,76.66
2022-12-13T20:11:16.920Z,76.79
2022-12-13T20:13:43.278Z,76.44
2022-12-13T20:16:09.885Z,76.44
2022-12-13T20:18:36.330Z,76.77
2022-12-13T20:21:11.502Z,76.34
2022-12-13T20:23:38.775Z,76.11
2022-12-13T20:26:05.168Z,76.37
2022-12-13T20:28:31.753Z,76.43
2022-12-13T20:31:00.884Z,76.46
2022-12-13T20:33:27.901Z,76.29
2022-12-13T20:36:23.181Z,76.84
2022-12-13T20:38:40.962Z,76.77
2022-12-13T20:41:07.359Z,76.64
2022-12-13T20:43:33.872Z,76.87
2022-12-13T20:46:00.286Z,76.87
2022-12-13T20:48:26.678Z,76.71
2022-12-13T20:50:53.033Z,76.50
2022-12-13T20:53:20.048Z,76.73
2022-12-13T20:55:48.351Z,77.15
2022-12-13T20:58:15.159Z,76.44
2022-12-13T21:00:41.696Z,76.45
2022-12-13T21:03:08.340Z,76.85
2022-12-13T21:05:34.809Z,76.98
2022-12-13T21:08:01.189Z,76.84
2022-12-13T21:10:27.687Z,76.91
2022-12-13T21:12:54.073Z,77.13
2022-12-13T21:15:20.416Z,76.93
2022-12-13T21:17:46.791Z,76.87
2022-12-13T21:20:13.231Z,77.19
2022-12-13T21:22:39.609Z,76.65
2022-12-13T21:25:06.053Z,77.07
2022-12-13T21:27:32.441Z,76.98
2022-12-13T21:29:58.822Z,77.20
2022-12-13T21:32:25.335Z,76.95
2022-12-13T21:34:51.681Z,77.06
2022-12-13T21:37:20.281Z,77.23
2022-12-13T21:39:46.696Z,77.10
2022-12-13T21:42:14.743Z,77.46
2022-12-13T21:44:41.498Z,77.08
2022-12-13T21:47:12.534Z,76.82
2022-12-13T21:49:39.398Z,76.99
2022-12-13T21:52:05.789Z,76.69
2022-12-13T21:54:32.139Z,76.91
2022-12-13T21:56:58.862Z,76.85
2022-12-13T21:59:26.623Z,76.90
2022-12-13T22:01:54.284Z,76.65
2022-12-13T22:04:20.925Z,76.39
2022-12-13T22:06:47.317Z,75.75
2022-12-13T22:09:13.672Z,75.31
2022-12-13T22:11:40.056Z,74.98
2022-12-13T22:14:07.449Z,75.27
2022-12-13T22:16:34.050Z,75.21
2022-12-13T22:19:00.487Z,75.25
2022-12-13T22:21:26.899Z,74.94
2022-12-13T22:23:53.380Z,75.17
2022-12-13T22:26:22.386Z,75.06
2022-12-13T22:28:48.974Z,74.83
2022-12-13T22:31:15.600Z,74.94
2022-12-13T22:33:42.479Z,75.06
2022-12-13T22:36:10.049Z,75.11
2022-12-13T22:38:37.780Z,75.11
2022-12-13T22:41:04.587Z,75.04
2022-12-13T22:43:31.460Z,75.01
2022-12-13T22:45:57.961Z,74.89
2022-12-13T22:48:25.651Z,74.73
2022-12-13T22:50:52.574Z,74.57
2022-12-13T22:53:20.058Z,74.76
2022-12-13T22:55:46.693Z,74.87
2022-12-13T22:58:13.218Z,74.80
2022-12-13T23:00:39.891Z,74.97
2022-12-13T23:03:08.999Z,75.13
2022-12-13T23:05:35.354Z,74.62
2022-12-13T23:08:01.868Z,74.58
2022-12-13T23:10:29.170Z,74.16
2022-12-13T23:12:55.770Z,74.07
2022-12-13T23:15:22.380Z,74.48
2022-12-13T23:17:49.043Z,74.49
2022-12-13T23:20:23.418Z,74.10
2022-12-13T23:22:50.427Z,74.22
2022-12-13T23:25:17.946Z,73.75
2022-12-13T23:27:44.671Z,74.11
2022-12-13T23:30:11.079Z,73.86
2022-12-13T23:32:37.718Z,73.65
2022-12-13T23:35:06.504Z,73.81
2022-12-13T23:37:32.899Z,73.61
2022-12-13T23:39:59.337Z,74.07
2022-12-13T23:42:25.756Z,73.91
2022-12-13T23:44:52.290Z,74.53
2022-12-13T23:47:18.669Z,74.48
2022-12-13T23:49:45.238Z,74.24
2022-12-13T23:52:14.774Z,74.31
2022-12-13T23:54:41.391Z,74.50
2022-12-13T23:57:10.789Z,74.53
2022-12-13T23:59:39.227Z,74.27
